KAPS

Port of South Louisiana Executive Regional Airport

Reserve, Louisiana, USA
METAR KAPS 212335Z AUTO 27005KT 10SM 30/24 A2990 RMK AO2 T03020236
Observed Flight Rules
Jun-21 @ 23:35 UTC (17 minutes ago)
Wind Visibility
270° at 5 knots 10 miles
Temperatures Readings
Current 30°C / 86°F
Dewpoint 24°C / 75°F
Humidity 70%
Altimeter 29.9" Hg
Pressure 1013 hPa
Elevation 2
METAR KAPS 212335Z AUTO 27005KT 10SM 30/24 A2990 RMK AO2 T03020236
Observed Flight Rules
Jun-21 @ 23:35 UTC
(17 minutes ago)
Wind Visibility
270° at 5 knots 10 miles
Temperature Dewpoint
30°C / 86°F 24°C / 75°F
Humidity Altimeter Pressure
70% 29.9" Hg 1013 hPa